sensor_id;sensor_type;location;lat;lon;timestamp;temperature;humidity
7378;DHT22;3730;50.856;12.776;2023-02-28T02:56:28;-0.70;99.90
7378;DHT22;3730;50.856;12.776;2023-02-28T02:59:00;-0.80;99.90
7378;DHT22;3730;50.856;12.776;2023-02-28T03:01:28;-0.80;99.90
7378;DHT22;3730;50.856;12.776;2023-02-28T03:04:06;-0.90;99.90
7378;DHT22;3730;50.856;12.776;2023-02-28T03:06:32;-0.80;99.90
7378;DHT22;3730;50.856;12.776;2023-02-28T03:09:00;-0.80;99.90
7378;DHT22;3730;50.856;12.776;2023-02-28T03:11:26;-0.90;99.90
7378;DHT22;3730;50.856;12.776;2023-02-28T03:16:56;-0.80;99.90
7378;DHT22;3730;50.856;12.776;2023-02-28T03:22:55;-0.80;99.90
7378;DHT22;3730;50.856;12.776;2023-02-28T03:25:32;-0.80;99.90
7378;DHT22;3730;50.856;12.776;2023-02-28T03:28:05;-0.80;99.90
7378;DHT22;3730;50.856;12.776;2023-02-28T03:30:41;-0.80;99.90
7378;DHT22;3730;50.856;12.776;2023-02-28T03:33:14;-0.90;99.90
7378;DHT22;3730;50.856;12.776;2023-02-28T03:35:55;-0.80;99.90
7378;DHT22;3730;50.856;12.776;2023-02-28T03:38:29;-0.70;99.90
7378;DHT22;3730;50.856;12.776;2023-02-28T03:41:06;-0.80;99.90
7378;DHT22;3730;50.856;12.776;2023-02-28T03:43:35;-0.90;99.90
7378;DHT22;3730;50.856;12.776;2023-02-28T03:46:08;-0.80;99.90
7378;DHT22;3730;50.856;12.776;2023-02-28T03:48:44;-0.90;99.90
7378;DHT22;3730;50.856;12.776;2023-02-28T03:51:15;-0.80;99.90
7378;DHT22;3730;50.856;12.776;2023-02-28T03:53:50;-0.80;99.90
7378;DHT22;3730;50.856;12.776;2023-02-28T03:57:08;-0.70;99.90
7378;DHT22;3730;50.856;12.776;2023-02-28T03:59:14;-0.70;99.90
7378;DHT22;3730;50.856;12.776;2023-02-28T04:01:44;-0.80;99.90
7378;DHT22;3730;50.856;12.776;2023-02-28T04:04:11;-0.70;99.90
7378;DHT22;3730;50.856;12.776;2023-02-28T04:06:37;-0.80;99.90
7378;DHT22;3730;50.856;12.776;2023-02-28T04:09:04;-0.70;99.90
7378;DHT22;3730;50.856;12.776;2023-02-28T04:11:53;-0.80;99.90
7378;DHT22;3730;50.856;12.776;2023-02-28T04:14:18;-0.80;99.90
7378;DHT22;3730;50.856;12.776;2023-02-28T04:16:44;-0.90;99.90
7378;DHT22;3730;50.856;12.776;2023-02-28T04:19:11;-0.80;99.90
7378;DHT22;3730;50.856;12.776;2023-02-28T04:21:38;-0.80;99.90
7378;DHT22;3730;50.856;12.776;2023-02-28T04:24:05;-0.80;99.90
7378;DHT22;3730;50.856;12.776;2023-02-28T04:26:36;-0.80;99.90
7378;DHT22;3730;50.856;12.776;2023-02-28T04:29:04;-0.90;99.90
7378;DHT22;3730;50.856;12.776;2023-02-28T04:31:30;-0.80;99.90
7378;DHT22;3730;50.856;12.776;2023-02-28T04:33:56;-0.90;99.90
7378;DHT22;3730;50.856;12.776;2023-02-28T04:36:22;-0.80;99.90
7378;DHT22;3730;50.856;12.776;2023-02-28T04:38:49;-0.90;99.90
7378;DHT22;3730;50.856;12.776;2023-02-28T04:41:15;-1.00;99.90
7378;DHT22;3730;50.856;12.776;2023-02-28T04:43:41;-0.80;99.90
7378;DHT22;3730;50.856;12.776;2023-02-28T04:46:07;-0.90;99.90
7378;DHT22;3730;50.856;12.776;2023-02-28T04:48:35;-0.80;99.90
7378;DHT22;3730;50.856;12.776;2023-02-28T04:51:03;-0.80;99.90
7378;DHT22;3730;50.856;12.776;2023-02-28T04:53:28;-0.70;99.90
7378;DHT22;3730;50.856;12.776;2023-02-28T04:55:55;-0.80;99.90
7378;DHT22;3730;50.856;12.776;2023-02-28T04:58:21;-0.70;99.90
7378;DHT22;3730;50.856;12.776;2023-02-28T05:00:50;-0.70;99.90
7378;DHT22;3730;50.856;12.776;2023-02-28T05:03:15;-0.60;99.90
7378;DHT22;3730;50.856;12.776;2023-02-28T05:05:41;-0.70;99.90
7378;DHT22;3730;50.856;12.776;2023-02-28T05:08:07;-0.70;99.90
7378;DHT22;3730;50.856;12.776;2023-02-28T05:10:32;-0.80;99.90
7378;DHT22;3730;50.856;12.776;2023-02-28T05:12:58;-0.80;99.90
7378;DHT22;3730;50.856;12.776;2023-02-28T05:15:24;-0.80;99.90
7378;DHT22;3730;50.856;12.776;2023-02-28T05:17:50;-0.70;99.90
7378;DHT22;3730;50.856;12.776;2023-02-28T05:20:16;-0.60;99.90
7378;DHT22;3730;50.856;12.776;2023-02-28T05:22:42;-0.70;99.90
7378;DHT22;3730;50.856;12.776;2023-02-28T05:25:12;-0.60;99.90
7378;DHT22;3730;50.856;12.776;2023-02-28T05:27:37;-0.60;99.90
7378;DHT22;3730;50.856;12.776;2023-02-28T05:30:05;-0.60;99.90
7378;DHT22;3730;50.856;12.776;2023-02-28T05:32:31;-0.60;99.90
7378;DHT22;3730;50.856;12.776;2023-02-28T05:34:57;-0.70;99.90
7378;DHT22;3730;50.856;12.776;2023-02-28T05:37:22;-0.60;99.90
7378;DHT22;3730;50.856;12.776;2023-02-28T05:39:48;-0.70;99.90
7378;DHT22;3730;50.856;12.776;2023-02-28T05:42:14;-0.40;99.90
7378;DHT22;3730;50.856;12.776;2023-02-28T05:44:39;-0.70;99.90
7378;DHT22;3730;50.856;12.776;2023-02-28T05:47:05;-0.70;99.90
7378;DHT22;3730;50.856;12.776;2023-02-28T05:49:31;-0.80;99.90
7378;DHT22;3730;50.856;12.776;2023-02-28T05:51:56;-0.70;99.90
7378;DHT22;3730;50.856;12.776;2023-02-28T05:54:22;-0.70;99.90
7378;DHT22;3730;50.856;12.776;2023-02-28T05:56:47;-0.80;99.90
7378;DHT22;3730;50.856;12.776;2023-02-28T05:59:13;-0.80;99.90
7378;DHT22;3730;50.856;12.776;2023-02-28T06:01:44;-0.80;99.90
7378;DHT22;3730;50.856;12.776;2023-02-28T06:04:18;-0.70;99.90
7378;DHT22;3730;50.856;12.776;2023-02-28T06:06:45;-0.80;99.90
7378;DHT22;3730;50.856;12.776;2023-02-28T06:09:11;-0.80;99.90
7378;DHT22;3730;50.856;12.776;2023-02-28T06:11:37;-0.80;99.90
7378;DHT22;3730;50.856;12.776;2023-02-28T06:14:03;-0.80;99.90
7378;DHT22;3730;50.856;12.776;2023-02-28T06:16:30;-0.90;99.90
7378;DHT22;3730;50.856;12.776;2023-02-28T06:19:01;-0.90;99.90
7378;DHT22;3730;50.856;12.776;2023-02-28T06:21:28;-0.40;99.90
7378;DHT22;3730;50.856;12.776;2023-02-28T06:23:55;-0.80;99.90
7378;DHT22;3730;50.856;12.776;2023-02-28T06:26:20;-0.90;99.90
7378;DHT22;3730;50.856;12.776;2023-02-28T06:28:47;-0.80;99.90
7378;DHT22;3730;50.856;12.776;2023-02-28T06:31:14;-0.80;99.90
7378;DHT22;3730;50.856;12.776;2023-02-28T06:33:41;-0.80;99.90
7378;DHT22;3730;50.856;12.776;2023-02-28T06:36:09;-0.80;99.90
7378;DHT22;3730;50.856;12.776;2023-02-28T06:38:35;-0.70;99.90
7378;DHT22;3730;50.856;12.776;2023-02-28T06:41:02;-0.60;99.90
7378;DHT22;3730;50.856;12.776;2023-02-28T06:43:29;-0.70;99.90
7378;DHT22;3730;50.856;12.776;2023-02-28T06:45:56;-0.70;99.90
7378;DHT22;3730;50.856;12.776;2023-02-28T06:48:22;-0.70;99.90
7378;DHT22;3730;50.856;12.776;2023-02-28T06:50:47;-0.70;99.90
7378;DHT22;3730;50.856;12.776;2023-02-28T06:53:13;-0.80;99.90
7378;DHT22;3730;50.856;12.776;2023-02-28T06:55:40;-0.70;99.90
7378;DHT22;3730;50.856;12.776;2023-02-28T06:58:06;-0.70;99.90
7378;DHT22;3730;50.856;12.776;2023-02-28T07:00:44;-0.70;99.90
7378;DHT22;3730;50.856;12.776;2023-02-28T07:03:11;-0.70;99.90
7378;DHT22;3730;50.856;12.776;2023-02-28T07:05:38;-0.70;99.90
7378;DHT22;3730;50.856;12.776;2023-02-28T07:08:05;-0.60;99.90
7378;DHT22;3730;50.856;12.776;2023-02-28T07:10:32;-0.60;99.90
7378;DHT22;3730;50.856;12.776;2023-02-28T07:12:59;-0.20;99.90
7378;DHT22;3730;50.856;12.776;2023-02-28T07:15:25;-0.60;99.90
7378;DHT22;3730;50.856;12.776;2023-02-28T07:17:50;-0.60;99.90
7378;DHT22;3730;50.856;12.776;2023-02-28T07:20:16;-0.60;99.90
7378;DHT22;3730;50.856;12.776;2023-02-28T07:22:42;-0.50;99.90
7378;DHT22;3730;50.856;12.776;2023-02-28T07:25:08;-0.50;99.90
7378;DHT22;3730;50.856;12.776;2023-02-28T07:27:34;-0.50;99.90
7378;DHT22;3730;50.856;12.776;2023-02-28T07:30:00;-0.50;99.90
7378;DHT22;3730;50.856;12.776;2023-02-28T07:32:29;-0.50;99.90
7378;DHT22;3730;50.856;12.776;2023-02-28T07:34:54;-0.60;99.90
7378;DHT22;3730;50.856;12.776;2023-02-28T07:37:20;-0.60;99.90
7378;DHT22;3730;50.856;12.776;2023-02-28T07:39:46;-0.60;99.90
7378;DHT22;3730;50.856;12.776;2023-02-28T07:42:11;-0.60;99.90
7378;DHT22;3730;50.856;12.776;2023-02-28T07:44:41;-0.50;99.90
7378;DHT22;3730;50.856;12.776;2023-02-28T07:47:10;-0.60;99.90
7378;DHT22;3730;50.856;12.776;2023-02-28T07:49:37;-0.50;99.90
7378;DHT22;3730;50.856;12.776;2023-02-28T07:52:07;-0.50;99.90
7378;DHT22;3730;50.856;12.776;2023-02-28T07:54:33;-0.30;99.90
7378;DHT22;3730;50.856;12.776;2023-02-28T07:56:59;0.00;99.90
7378;DHT22;3730;50.856;12.776;2023-02-28T07:59:24;-0.40;99.90
7378;DHT22;3730;50.856;12.776;2023-02-28T08:01:50;-0.30;99.90
7378;DHT22;3730;50.856;12.776;2023-02-28T08:04:17;-0.30;99.90
7378;DHT22;3730;50.856;12.776;2023-02-28T08:06:43;-0.20;99.90
7378;DHT22;3730;50.856;12.776;2023-02-28T08:09:09;-0.20;99.90
7378;DHT22;3730;50.856;12.776;2023-02-28T08:11:34;0.50;99.90
7378;DHT22;3730;50.856;12.776;2023-02-28T08:14:00;-0.10;99.90
7378;DHT22;3730;50.856;12.776;2023-02-28T08:16:26;-0.20;99.90
7378;DHT22;3730;50.856;12.776;2023-02-28T08:18:52;-0.20;99.90
7378;DHT22;3730;50.856;12.776;2023-02-28T08:21:18;-0.20;99.90
7378;DHT22;3730;50.856;12.776;2023-02-28T08:23:49;-0.20;99.90
7378;DHT22;3730;50.856;12.776;2023-02-28T08:26:16;-0.20;99.90
7378;DHT22;3730;50.856;12.776;2023-02-28T08:28:42;0.40;99.90
7378;DHT22;3730;50.856;12.776;2023-02-28T08:31:13;2.10;99.90
7378;DHT22;3730;50.856;12.776;2023-02-28T08:33:40;-0.10;99.90
7378;DHT22;3730;50.856;12.776;2023-02-28T08:36:06;-0.20;99.90
7378;DHT22;3730;50.856;12.776;2023-02-28T08:38:32;0.00;99.90
7378;DHT22;3730;50.856;12.776;2023-02-28T08:41:06;-0.10;99.90
7378;DHT22;3730;50.856;12.776;2023-02-28T08:43:33;0.10;99.90
7378;DHT22;3730;50.856;12.776;2023-02-28T08:45:59;0.00;97.80
7378;DHT22;3730;50.856;12.776;2023-02-28T08:48:27;0.00;97.90
7378;DHT22;3730;50.856;12.776;2023-02-28T08:50:58;0.50;97.40
7378;DHT22;3730;50.856;12.776;2023-02-28T08:53:24;0.00;95.90
7378;DHT22;3730;50.856;12.776;2023-02-28T08:56:00;0.00;94.60
7378;DHT22;3730;50.856;12.776;2023-02-28T08:58:26;0.20;95.70
7378;DHT22;3730;50.856;12.776;2023-02-28T09:00:52;0.10;94.80
7378;DHT22;3730;50.856;12.776;2023-02-28T09:03:18;0.10;94.00
7378;DHT22;3730;50.856;12.776;2023-02-28T09:05:57;0.30;93.40
7378;DHT22;3730;50.856;12.776;2023-02-28T09:08:24;0.30;94.30
7378;DHT22;3730;50.856;12.776;2023-02-28T09:10:50;0.40;93.50
7378;DHT22;3730;50.856;12.776;2023-02-28T09:13:17;0.40;93.70
7378;DHT22;3730;50.856;12.776;2023-02-28T09:15:43;0.40;93.10
7378;DHT22;3730;50.856;12.776;2023-02-28T09:18:08;0.60;91.80
7378;DHT22;3730;50.856;12.776;2023-02-28T09:20:36;0.70;90.90
7378;DHT22;3730;50.856;12.776;2023-02-28T09:23:02;0.70;90.20
7378;DHT22;3730;50.856;12.776;2023-02-28T09:25:28;0.60;89.00
7378;DHT22;3730;50.856;12.776;2023-02-28T09:27:53;0.70;87.90
7378;DHT22;3730;50.856;12.776;2023-02-28T09:30:19;0.80;85.50
7378;DHT22;3730;50.856;12.776;2023-02-28T09:32:44;0.80;82.90
7378;DHT22;3730;50.856;12.776;2023-02-28T09:35:17;0.70;90.80
7378;DHT22;3730;50.856;12.776;2023-02-28T09:37:43;0.80;84.20
7378;DHT22;3730;50.856;12.776;2023-02-28T09:40:10;0.80;75.50
7378;DHT22;3730;50.856;12.776;2023-02-28T09:42:38;0.90;75.60
7378;DHT22;3730;50.856;12.776;2023-02-28T09:45:21;0.80;68.80
7378;DHT22;3730;50.856;12.776;2023-02-28T09:47:47;0.80;68.00
7378;DHT22;3730;50.856;12.776;2023-02-28T13:47:40;1.40;63.80
7378;DHT22;3730;50.856;12.776;2023-02-28T13:50:27;5.10;34.20
7378;DHT22;3730;50.856;12.776;2023-02-28T14:04:09;5.10;32.40
7378;DHT22;3730;50.856;12.776;2023-02-28T14:06:39;4.90;33.30
7378;DHT22;3730;50.856;12.776;2023-02-28T14:09:30;4.80;36.20
7378;DHT22;3730;50.856;12.776;2023-02-28T14:11:57;4.80;36.50
7378;DHT22;3730;50.856;12.776;2023-02-28T14:17:05;4.60;36.00
7378;DHT22;3730;50.856;12.776;2023-02-28T14:19:34;4.40;35.30
7378;DHT22;3730;50.856;12.776;2023-02-28T22:28:56;0.70;82.50
7378;DHT22;3730;50.856;12.776;2023-02-28T22:31:26;0.00;89.80
7378;DHT22;3730;50.856;12.776;2023-02-28T22:33:55;-0.10;90.40
7378;DHT22;3730;50.856;12.776;2023-02-28T22:36:21;-0.10;94.20
7378;DHT22;3730;50.856;12.776;2023-02-28T22:38:48;-0.10;90.70
7378;DHT22;3730;50.856;12.776;2023-02-28T22:41:16;-0.10;90.80
7378;DHT22;3730;50.856;12.776;2023-02-28T22:43:42;-0.10;90.70
7378;DHT22;3730;50.856;12.776;2023-02-28T22:46:10;-0.10;91.20
7378;DHT22;3730;50.856;12.776;2023-02-28T22:48:36;-0.10;91.60
7378;DHT22;3730;50.856;12.776;2023-02-28T22:51:11;-0.20;91.90
7378;DHT22;3730;50.856;12.776;2023-02-28T22:53:37;-0.10;91.50
7378;DHT22;3730;50.856;12.776;2023-02-28T22:56:04;-0.10;91.50
7378;DHT22;3730;50.856;12.776;2023-02-28T22:58:29;0.00;95.10
7378;DHT22;3730;50.856;12.776;2023-02-28T23:00:55;0.00;91.50
7378;DHT22;3730;50.856;12.776;2023-02-28T23:03:23;0.10;91.30
7378;DHT22;3730;50.856;12.776;2023-02-28T23:05:50;0.00;91.40
7378;DHT22;3730;50.856;12.776;2023-02-28T23:08:16;0.10;91.30
7378;DHT22;3730;50.856;12.776;2023-02-28T23:10:48;0.10;91.20
7378;DHT22;3730;50.856;12.776;2023-02-28T23:13:19;0.10;91.10
7378;DHT22;3730;50.856;12.776;2023-02-28T23:15:45;0.00;91.50
7378;DHT22;3730;50.856;12.776;2023-02-28T23:18:12;0.10;91.30
7378;DHT22;3730;50.856;12.776;2023-02-28T23:20:38;0.00;91.00
7378;DHT22;3730;50.856;12.776;2023-02-28T23:23:05;0.00;91.00
7378;DHT22;3730;50.856;12.776;2023-02-28T23:25:30;0.10;90.70
7378;DHT22;3730;50.856;12.776;2023-02-28T23:27:56;0.00;90.90
7378;DHT22;3730;50.856;12.776;2023-02-28T23:30:22;0.00;91.00
7378;DHT22;3730;50.856;12.776;2023-02-28T23:32:47;-0.10;91.00
7378;DHT22;3730;50.856;12.776;2023-02-28T23:35:14;0.00;91.20
7378;DHT22;3730;50.856;12.776;2023-02-28T23:37:40;-0.10;91.20
7378;DHT22;3730;50.856;12.776;2023-02-28T23:40:07;0.00;91.50
7378;DHT22;3730;50.856;12.776;2023-02-28T23:42:35;0.00;91.50
7378;DHT22;3730;50.856;12.776;2023-02-28T23:45:02;3.70;92.90
7378;DHT22;3730;50.856;12.776;2023-02-28T23:47:27;0.00;91.50
7378;DHT22;3730;50.856;12.776;2023-02-28T23:49:53;-0.10;91.30
7378;DHT22;3730;50.856;12.776;2023-02-28T23:52:19;-0.20;91.40
7378;DHT22;3730;50.856;12.776;2023-02-28T23:54:44;0.20;91.70
7378;DHT22;3730;50.856;12.776;2023-02-28T23:57:11;-0.20;91.90
7378;DHT22;3730;50.856;12.776;2023-02-28T23:59:36;-0.20;92.30
